Terminal Aerodrome Forecast
Issued by NWS

Home | Current Version | Previous Version | Text Only | Print | Product List | Glossary On
Versions: 1 2 3 4 5 6 7 8 9 10 11 12 13 14 15 16 17 18
000
FTUS43 KGRB 271700
TAFCWA
TAF
KCWA 271736Z 2718/2818 32008KT P6SM SCT050
     FM272200 29003KT P6SM SCT250
     FM280500 VRB03KT P6SM OVC080
     FM281200 18007KT 5SM -SN BR OVC030
     FM281500 15007KT 2SM -SN BR OVC015=

USA.gov is the U.S. government's official web portal to all federal, state and local government web resources and services.